sensor_id;sensor_type;location;lat;lon;timestamp;temperature;humidity
65058;HTU21D;51644;51.068;5.860;2023-11-19T00:00:14;13.09;99.72
65058;HTU21D;51644;51.068;5.860;2023-11-19T00:01:15;13.10;99.86
65058;HTU21D;51644;51.068;5.860;2023-11-19T00:02:20;13.07;99.97
65058;HTU21D;51644;51.068;5.860;2023-11-19T00:03:44;13.03;100.16
65058;HTU21D;51644;51.068;5.860;2023-11-19T00:04:50;13.10;99.91
65058;HTU21D;51644;51.068;5.860;2023-11-19T00:05:52;13.09;99.90
65058;HTU21D;51644;51.068;5.860;2023-11-19T00:06:54;13.11;99.64
65058;HTU21D;51644;51.068;5.860;2023-11-19T00:08:00;13.15;99.57
65058;HTU21D;51644;51.068;5.860;2023-11-19T00:09:00;13.12;99.58
65058;HTU21D;51644;51.068;5.860;2023-11-19T00:10:11;13.10;99.61
65058;HTU21D;51644;51.068;5.860;2023-11-19T00:11:10;13.12;99.58
65058;HTU21D;51644;51.068;5.860;2023-11-19T00:12:12;13.11;99.80
65058;HTU21D;51644;51.068;5.860;2023-11-19T00:13:15;13.12;99.57
65058;HTU21D;51644;51.068;5.860;2023-11-19T00:14:14;13.15;99.48
65058;HTU21D;51644;51.068;5.860;2023-11-19T00:15:19;13.11;99.80
65058;HTU21D;51644;51.068;5.860;2023-11-19T00:16:20;13.15;99.60
65058;HTU21D;51644;51.068;5.860;2023-11-19T00:17:27;13.17;99.55
65058;HTU21D;51644;51.068;5.860;2023-11-19T00:18:31;13.14;99.66
65058;HTU21D;51644;51.068;5.860;2023-11-19T00:19:34;13.11;100.15
65058;HTU21D;51644;51.068;5.860;2023-11-19T00:20:37;13.09;100.26
65058;HTU21D;51644;51.068;5.860;2023-11-19T00:21:48;13.10;100.13
65058;HTU21D;51644;51.068;5.860;2023-11-19T00:22:47;13.07;100.32
65058;HTU21D;51644;51.068;5.860;2023-11-19T00:23:49;13.15;99.87
65058;HTU21D;51644;51.068;5.860;2023-11-19T00:24:51;13.18;99.57
65058;HTU21D;51644;51.068;5.860;2023-11-19T00:25:53;13.16;99.72
65058;HTU21D;51644;51.068;5.860;2023-11-19T00:26:56;13.17;99.73
65058;HTU21D;51644;51.068;5.860;2023-11-19T00:28:03;13.15;99.91
65058;HTU21D;51644;51.068;5.860;2023-11-19T00:29:05;13.17;99.78
65058;HTU21D;51644;51.068;5.860;2023-11-19T00:30:06;13.16;99.88
65058;HTU21D;51644;51.068;5.860;2023-11-19T00:31:08;13.17;99.87
65058;HTU21D;51644;51.068;5.860;2023-11-19T00:32:33;13.21;99.77
65058;HTU21D;51644;51.068;5.860;2023-11-19T00:33:36;13.19;99.81
65058;HTU21D;51644;51.068;5.860;2023-11-19T00:34:38;13.18;99.98
65058;HTU21D;51644;51.068;5.860;2023-11-19T00:35:40;13.20;99.88
65058;HTU21D;51644;51.068;5.860;2023-11-19T00:36:48;13.18;99.94
65058;HTU21D;51644;51.068;5.860;2023-11-19T00:37:47;13.18;100.22
65058;HTU21D;51644;51.068;5.860;2023-11-19T00:38:53;13.23;100.12
65058;HTU21D;51644;51.068;5.860;2023-11-19T00:40:01;13.23;100.03
65058;HTU21D;51644;51.068;5.860;2023-11-19T00:41:04;13.26;99.86
65058;HTU21D;51644;51.068;5.860;2023-11-19T00:42:03;13.22;100.23
65058;HTU21D;51644;51.068;5.860;2023-11-19T00:43:03;13.22;100.31
65058;HTU21D;51644;51.068;5.860;2023-11-19T00:44:02;13.24;100.45
65058;HTU21D;51644;51.068;5.860;2023-11-19T00:45:02;13.27;100.16
65058;HTU21D;51644;51.068;5.860;2023-11-19T00:46:03;13.32;100.03
65058;HTU21D;51644;51.068;5.860;2023-11-19T00:47:12;13.37;99.68
65058;HTU21D;51644;51.068;5.860;2023-11-19T00:48:14;13.37;99.48
65058;HTU21D;51644;51.068;5.860;2023-11-19T00:49:15;13.38;99.67
65058;HTU21D;51644;51.068;5.860;2023-11-19T00:50:17;13.38;99.55
65058;HTU21D;51644;51.068;5.860;2023-11-19T00:51:16;13.41;99.47
65058;HTU21D;51644;51.068;5.860;2023-11-19T00:52:18;13.46;99.21
65058;HTU21D;51644;51.068;5.860;2023-11-19T00:53:20;13.43;99.13
65058;HTU21D;51644;51.068;5.860;2023-11-19T00:54:20;13.48;98.94
65058;HTU21D;51644;51.068;5.860;2023-11-19T00:55:25;13.47;98.88
65058;HTU21D;51644;51.068;5.860;2023-11-19T00:56:30;13.43;99.11
65058;HTU21D;51644;51.068;5.860;2023-11-19T00:57:30;13.41;99.26
65058;HTU21D;51644;51.068;5.860;2023-11-19T00:58:38;13.43;99.32
65058;HTU21D;51644;51.068;5.860;2023-11-19T00:59:36;13.40;99.29
65058;HTU21D;51644;51.068;5.860;2023-11-19T01:00:36;13.41;99.19
65058;HTU21D;51644;51.068;5.860;2023-11-19T01:01:54;13.39;99.22
65058;HTU21D;51644;51.068;5.860;2023-11-19T01:02:56;13.47;99.03
65058;HTU21D;51644;51.068;5.860;2023-11-19T01:04:02;13.41;99.21
65058;HTU21D;51644;51.068;5.860;2023-11-19T01:05:01;13.39;99.15
65058;HTU21D;51644;51.068;5.860;2023-11-19T01:06:00;13.35;99.67
65058;HTU21D;51644;51.068;5.860;2023-11-19T01:07:06;13.33;99.90
65058;HTU21D;51644;51.068;5.860;2023-11-19T01:08:09;13.37;99.62
65058;HTU21D;51644;51.068;5.860;2023-11-19T01:09:10;13.39;99.64
65058;HTU21D;51644;51.068;5.860;2023-11-19T01:10:09;13.40;99.61
65058;HTU21D;51644;51.068;5.860;2023-11-19T01:11:09;13.40;99.45
65058;HTU21D;51644;51.068;5.860;2023-11-19T01:12:11;13.38;99.57
65058;HTU21D;51644;51.068;5.860;2023-11-19T01:13:13;13.45;99.30
65058;HTU21D;51644;51.068;5.860;2023-11-19T01:14:14;13.49;99.11
65058;HTU21D;51644;51.068;5.860;2023-11-19T01:15:14;13.50;99.09
65058;HTU21D;51644;51.068;5.860;2023-11-19T01:16:18;13.51;99.03
65058;HTU21D;51644;51.068;5.860;2023-11-19T01:17:17;13.51;98.94
65058;HTU21D;51644;51.068;5.860;2023-11-19T01:18:17;13.50;98.97
65058;HTU21D;51644;51.068;5.860;2023-11-19T01:19:15;13.49;99.16
65058;HTU21D;51644;51.068;5.860;2023-11-19T01:20:15;13.53;99.03
65058;HTU21D;51644;51.068;5.860;2023-11-19T01:21:17;13.53;98.93
65058;HTU21D;51644;51.068;5.860;2023-11-19T01:22:26;13.51;98.96
65058;HTU21D;51644;51.068;5.860;2023-11-19T01:23:28;13.53;98.94
65058;HTU21D;51644;51.068;5.860;2023-11-19T01:24:35;13.58;98.68
65058;HTU21D;51644;51.068;5.860;2023-11-19T01:25:37;13.56;98.93
65058;HTU21D;51644;51.068;5.860;2023-11-19T01:26:39;13.58;98.91
65058;HTU21D;51644;51.068;5.860;2023-11-19T01:27:46;13.59;98.94
65058;HTU21D;51644;51.068;5.860;2023-11-19T01:28:48;13.63;98.66
65058;HTU21D;51644;51.068;5.860;2023-11-19T01:31:33;13.64;98.64
65058;HTU21D;51644;51.068;5.860;2023-11-19T01:32:32;13.68;98.55
65058;HTU21D;51644;51.068;5.860;2023-11-19T01:34:14;13.69;98.42
65058;HTU21D;51644;51.068;5.860;2023-11-19T01:35:15;13.63;98.66
65058;HTU21D;51644;51.068;5.860;2023-11-19T01:36:57;13.62;98.86
65058;HTU21D;51644;51.068;5.860;2023-11-19T01:38:13;13.66;98.70
65058;HTU21D;51644;51.068;5.860;2023-11-19T01:39:13;13.63;98.67
65058;HTU21D;51644;51.068;5.860;2023-11-19T01:40:14;13.60;98.95
65058;HTU21D;51644;51.068;5.860;2023-11-19T01:41:18;13.64;98.85
65058;HTU21D;51644;51.068;5.860;2023-11-19T01:42:20;13.62;98.78
65058;HTU21D;51644;51.068;5.860;2023-11-19T01:43:36;13.60;99.13
65058;HTU21D;51644;51.068;5.860;2023-11-19T01:44:38;13.62;99.06
65058;HTU21D;51644;51.068;5.860;2023-11-19T01:45:39;13.62;99.09
65058;HTU21D;51644;51.068;5.860;2023-11-19T01:46:49;13.69;98.75
65058;HTU21D;51644;51.068;5.860;2023-11-19T01:48:00;13.67;98.84
65058;HTU21D;51644;51.068;5.860;2023-11-19T01:49:06;13.64;98.92
65058;HTU21D;51644;51.068;5.860;2023-11-19T01:50:12;13.64;98.84
65058;HTU21D;51644;51.068;5.860;2023-11-19T01:51:13;13.63;99.06
65058;HTU21D;51644;51.068;5.860;2023-11-19T01:52:40;13.68;98.79
65058;HTU21D;51644;51.068;5.860;2023-11-19T01:53:52;13.69;98.78
65058;HTU21D;51644;51.068;5.860;2023-11-19T01:54:54;13.69;98.70
65058;HTU21D;51644;51.068;5.860;2023-11-19T01:55:53;13.69;98.55
65058;HTU21D;51644;51.068;5.860;2023-11-19T01:56:56;13.67;98.71
65058;HTU21D;51644;51.068;5.860;2023-11-19T01:58:24;13.64;98.91
65058;HTU21D;51644;51.068;5.860;2023-11-19T01:59:26;13.64;98.97
65058;HTU21D;51644;51.068;5.860;2023-11-19T02:00:26;13.69;98.70
65058;HTU21D;51644;51.068;5.860;2023-11-19T02:01:26;13.71;98.40
65058;HTU21D;51644;51.068;5.860;2023-11-19T02:02:26;13.71;98.26
65058;HTU21D;51644;51.068;5.860;2023-11-19T02:03:28;13.68;98.26
65058;HTU21D;51644;51.068;5.860;2023-11-19T02:04:29;13.65;98.52
65058;HTU21D;51644;51.068;5.860;2023-11-19T02:05:29;13.64;98.39
65058;HTU21D;51644;51.068;5.860;2023-11-19T02:06:34;13.64;98.30
65058;HTU21D;51644;51.068;5.860;2023-11-19T02:08:19;13.62;98.36
65058;HTU21D;51644;51.068;5.860;2023-11-19T02:09:21;13.58;98.38
65058;HTU21D;51644;51.068;5.860;2023-11-19T02:10:23;13.55;98.65
65058;HTU21D;51644;51.068;5.860;2023-11-19T02:11:23;13.53;98.88
65058;HTU21D;51644;51.068;5.860;2023-11-19T02:12:33;13.52;98.92
65058;HTU21D;51644;51.068;5.860;2023-11-19T02:13:37;13.53;98.77
65058;HTU21D;51644;51.068;5.860;2023-11-19T02:14:45;13.54;98.63
65058;HTU21D;51644;51.068;5.860;2023-11-19T02:15:46;13.55;98.53
65058;HTU21D;51644;51.068;5.860;2023-11-19T02:17:04;13.47;99.03
65058;HTU21D;51644;51.068;5.860;2023-11-19T02:18:23;13.49;99.05
65058;HTU21D;51644;51.068;5.860;2023-11-19T02:19:25;13.43;99.38
65058;HTU21D;51644;51.068;5.860;2023-11-19T02:20:25;13.45;99.38
65058;HTU21D;51644;51.068;5.860;2023-11-19T02:21:27;13.48;99.12
65058;HTU21D;51644;51.068;5.860;2023-11-19T02:22:30;13.50;98.93
65058;HTU21D;51644;51.068;5.860;2023-11-19T02:23:55;13.51;98.80
65058;HTU21D;51644;51.068;5.860;2023-11-19T02:25:00;13.50;98.87
65058;HTU21D;51644;51.068;5.860;2023-11-19T02:27:44;13.53;98.75
65058;HTU21D;51644;51.068;5.860;2023-11-19T02:28:45;13.48;98.63
65058;HTU21D;51644;51.068;5.860;2023-11-19T02:29:55;13.49;98.84
65058;HTU21D;51644;51.068;5.860;2023-11-19T02:30:54;13.48;98.61
65058;HTU21D;51644;51.068;5.860;2023-11-19T02:31:58;13.44;98.99
65058;HTU21D;51644;51.068;5.860;2023-11-19T02:32:57;13.39;99.30
65058;HTU21D;51644;51.068;5.860;2023-11-19T02:34:05;13.40;99.19
65058;HTU21D;51644;51.068;5.860;2023-11-19T02:35:32;13.48;98.87
65058;HTU21D;51644;51.068;5.860;2023-11-19T02:36:50;13.46;98.65
65058;HTU21D;51644;51.068;5.860;2023-11-19T02:37:56;13.41;98.62
65058;HTU21D;51644;51.068;5.860;2023-11-19T02:38:56;13.43;98.58
65058;HTU21D;51644;51.068;5.860;2023-11-19T02:39:58;13.40;98.68
65058;HTU21D;51644;51.068;5.860;2023-11-19T02:41:09;13.38;98.60
65058;HTU21D;51644;51.068;5.860;2023-11-19T02:42:09;13.41;98.52
65058;HTU21D;51644;51.068;5.860;2023-11-19T02:43:08;13.41;98.71
65058;HTU21D;51644;51.068;5.860;2023-11-19T02:44:13;13.39;98.80
65058;HTU21D;51644;51.068;5.860;2023-11-19T02:45:35;13.44;98.64
65058;HTU21D;51644;51.068;5.860;2023-11-19T02:46:37;13.43;98.43
65058;HTU21D;51644;51.068;5.860;2023-11-19T02:47:53;13.46;98.36
65058;HTU21D;51644;51.068;5.860;2023-11-19T02:48:54;13.46;98.36
65058;HTU21D;51644;51.068;5.860;2023-11-19T02:50:01;13.43;98.13
65058;HTU21D;51644;51.068;5.860;2023-11-19T02:51:16;13.44;98.29
65058;HTU21D;51644;51.068;5.860;2023-11-19T02:52:17;13.47;98.34
65058;HTU21D;51644;51.068;5.860;2023-11-19T02:53:24;13.48;98.13
65058;HTU21D;51644;51.068;5.860;2023-11-19T02:54:35;13.48;98.07
65058;HTU21D;51644;51.068;5.860;2023-11-19T02:55:55;13.50;97.86
65058;HTU21D;51644;51.068;5.860;2023-11-19T02:57:22;13.50;97.81
65058;HTU21D;51644;51.068;5.860;2023-11-19T02:58:28;13.54;97.61
65058;HTU21D;51644;51.068;5.860;2023-11-19T02:59:30;13.52;97.59
65058;HTU21D;51644;51.068;5.860;2023-11-19T03:00:39;13.49;97.58
65058;HTU21D;51644;51.068;5.860;2023-11-19T03:02:17;13.50;97.27
65058;HTU21D;51644;51.068;5.860;2023-11-19T03:03:28;13.49;96.98
65058;HTU21D;51644;51.068;5.860;2023-11-19T03:04:38;13.45;97.00
65058;HTU21D;51644;51.068;5.860;2023-11-19T03:05:42;13.39;97.21
65058;HTU21D;51644;51.068;5.860;2023-11-19T03:06:46;13.38;97.13
65058;HTU21D;51644;51.068;5.860;2023-11-19T03:07:47;13.38;97.11
65058;HTU21D;51644;51.068;5.860;2023-11-19T03:08:50;13.36;97.09
65058;HTU21D;51644;51.068;5.860;2023-11-19T03:09:51;13.38;97.01
65058;HTU21D;51644;51.068;5.860;2023-11-19T03:10:51;13.39;96.88
65058;HTU21D;51644;51.068;5.860;2023-11-19T03:11:56;13.38;96.92
65058;HTU21D;51644;51.068;5.860;2023-11-19T03:12:58;13.38;96.94
65058;HTU21D;51644;51.068;5.860;2023-11-19T03:14:04;13.44;96.65
65058;HTU21D;51644;51.068;5.860;2023-11-19T03:15:10;13.45;96.68
65058;HTU21D;51644;51.068;5.860;2023-11-19T03:16:18;13.40;96.87
65058;HTU21D;51644;51.068;5.860;2023-11-19T03:17:19;13.40;96.77
65058;HTU21D;51644;51.068;5.860;2023-11-19T03:18:24;13.46;96.33
65058;HTU21D;51644;51.068;5.860;2023-11-19T03:19:23;13.45;96.33
65058;HTU21D;51644;51.068;5.860;2023-11-19T03:20:24;13.40;96.21
65058;HTU21D;51644;51.068;5.860;2023-11-19T03:21:32;13.38;96.31
65058;HTU21D;51644;51.068;5.860;2023-11-19T03:22:40;13.34;96.12
65058;HTU21D;51644;51.068;5.860;2023-11-19T03:23:51;13.31;96.33
65058;HTU21D;51644;51.068;5.860;2023-11-19T03:24:57;13.32;96.28
65058;HTU21D;51644;51.068;5.860;2023-11-19T03:25:58;13.30;96.32
65058;HTU21D;51644;51.068;5.860;2023-11-19T03:27:10;13.26;96.29
65058;HTU21D;51644;51.068;5.860;2023-11-19T03:28:16;13.23;96.51
65058;HTU21D;51644;51.068;5.860;2023-11-19T03:29:18;13.23;96.45
65058;HTU21D;51644;51.068;5.860;2023-11-19T03:30:24;13.21;96.51
65058;HTU21D;51644;51.068;5.860;2023-11-19T03:31:25;13.21;96.42
65058;HTU21D;51644;51.068;5.860;2023-11-19T03:32:36;13.18;96.39
65058;HTU21D;51644;51.068;5.860;2023-11-19T03:33:40;13.08;96.51
65058;HTU21D;51644;51.068;5.860;2023-11-19T03:34:40;13.09;96.70
65058;HTU21D;51644;51.068;5.860;2023-11-19T03:35:39;13.08;96.87
65058;HTU21D;51644;51.068;5.860;2023-11-19T03:36:45;13.07;96.77
65058;HTU21D;51644;51.068;5.860;2023-11-19T03:37:44;13.03;96.88
65058;HTU21D;51644;51.068;5.860;2023-11-19T03:38:45;13.04;96.87
65058;HTU21D;51644;51.068;5.860;2023-11-19T03:39:44;12.97;97.29
65058;HTU21D;51644;51.068;5.860;2023-11-19T03:40:52;12.99;97.31
65058;HTU21D;51644;51.068;5.860;2023-11-19T03:41:51;13.03;97.16
65058;HTU21D;51644;51.068;5.860;2023-11-19T03:42:56;13.02;97.24
65058;HTU21D;51644;51.068;5.860;2023-11-19T03:43:57;13.02;97.19
65058;HTU21D;51644;51.068;5.860;2023-11-19T03:44:56;12.99;97.27
65058;HTU21D;51644;51.068;5.860;2023-11-19T03:45:55;13.00;97.32
65058;HTU21D;51644;51.068;5.860;2023-11-19T03:46:57;13.01;97.14
65058;HTU21D;51644;51.068;5.860;2023-11-19T03:48:04;13.00;97.00
65058;HTU21D;51644;51.068;5.860;2023-11-19T03:49:03;12.94;97.23
65058;HTU21D;51644;51.068;5.860;2023-11-19T03:50:13;12.94;97.22
65058;HTU21D;51644;51.068;5.860;2023-11-19T03:51:17;12.95;97.16
65058;HTU21D;51644;51.068;5.860;2023-11-19T03:52:21;12.91;97.32
65058;HTU21D;51644;51.068;5.860;2023-11-19T03:53:24;12.88;97.69
65058;HTU21D;51644;51.068;5.860;2023-11-19T03:54:32;12.92;97.52
65058;HTU21D;51644;51.068;5.860;2023-11-19T03:55:31;12.95;97.52
65058;HTU21D;51644;51.068;5.860;2023-11-19T03:56:41;12.99;97.49
65058;HTU21D;51644;51.068;5.860;2023-11-19T03:58:05;13.00;97.23
65058;HTU21D;51644;51.068;5.860;2023-11-19T03:59:13;13.01;97.05
65058;HTU21D;51644;51.068;5.860;2023-11-19T04:00:19;12.97;97.03
65058;HTU21D;51644;51.068;5.860;2023-11-19T04:01:25;12.96;97.08
65058;HTU21D;51644;51.068;5.860;2023-11-19T04:02:26;12.96;97.00
65058;HTU21D;51644;51.068;5.860;2023-11-19T04:03:29;12.94;96.94
65058;HTU21D;51644;51.068;5.860;2023-11-19T04:04:29;12.87;97.05
65058;HTU21D;51644;51.068;5.860;2023-11-19T04:05:41;12.84;97.45
65058;HTU21D;51644;51.068;5.860;2023-11-19T04:06:42;12.86;97.31
65058;HTU21D;51644;51.068;5.860;2023-11-19T04:07:49;12.87;97.30
65058;HTU21D;51644;51.068;5.860;2023-11-19T04:09:07;12.88;97.20
65058;HTU21D;51644;51.068;5.860;2023-11-19T04:10:08;12.87;97.16
65058;HTU21D;51644;51.068;5.860;2023-11-19T04:11:21;12.82;97.25
65058;HTU21D;51644;51.068;5.860;2023-11-19T04:12:21;12.86;97.15
65058;HTU21D;51644;51.068;5.860;2023-11-19T04:13:20;12.82;97.00
65058;HTU21D;51644;51.068;5.860;2023-11-19T04:14:25;12.81;97.05
65058;HTU21D;51644;51.068;5.860;2023-11-19T04:15:24;12.80;96.92
65058;HTU21D;51644;51.068;5.860;2023-11-19T04:16:34;12.75;96.97
65058;HTU21D;51644;51.068;5.860;2023-11-19T04:17:46;12.75;96.98
65058;HTU21D;51644;51.068;5.860;2023-11-19T04:18:51;12.73;97.13
65058;HTU21D;51644;51.068;5.860;2023-11-19T04:19:53;12.75;97.19
65058;HTU21D;51644;51.068;5.860;2023-11-19T04:20:57;12.75;97.19
65058;HTU21D;51644;51.068;5.860;2023-11-19T04:21:56;12.79;97.32
65058;HTU21D;51644;51.068;5.860;2023-11-19T04:22:56;12.80;97.46
65058;HTU21D;51644;51.068;5.860;2023-11-19T04:23:59;12.86;97.34
65058;HTU21D;51644;51.068;5.860;2023-11-19T04:24:58;12.89;97.41
65058;HTU21D;51644;51.068;5.860;2023-11-19T04:26:03;12.94;97.36
65058;HTU21D;51644;51.068;5.860;2023-11-19T04:27:11;13.00;97.07
65058;HTU21D;51644;51.068;5.860;2023-11-19T04:28:15;13.03;96.98
65058;HTU21D;51644;51.068;5.860;2023-11-19T04:29:20;13.07;96.76
65058;HTU21D;51644;51.068;5.860;2023-11-19T04:30:19;13.05;96.86
65058;HTU21D;51644;51.068;5.860;2023-11-19T04:31:22;13.06;96.55
65058;HTU21D;51644;51.068;5.860;2023-11-19T04:32:31;13.07;96.35
65058;HTU21D;51644;51.068;5.860;2023-11-19T04:33:43;12.99;96.36
65058;HTU21D;51644;51.068;5.860;2023-11-19T04:34:43;12.99;96.30
65058;HTU21D;51644;51.068;5.860;2023-11-19T04:35:45;12.99;96.19
65058;HTU21D;51644;51.068;5.860;2023-11-19T04:36:47;12.97;96.13
65058;HTU21D;51644;51.068;5.860;2023-11-19T04:38:15;12.96;96.03
65058;HTU21D;51644;51.068;5.860;2023-11-19T04:39:19;12.92;95.90
65058;HTU21D;51644;51.068;5.860;2023-11-19T04:40:26;12.81;96.13
65058;HTU21D;51644;51.068;5.860;2023-11-19T04:41:31;12.78;96.33
65058;HTU21D;51644;51.068;5.860;2023-11-19T04:42:35;12.73;96.55
65058;HTU21D;51644;51.068;5.860;2023-11-19T04:43:46;12.70;96.83
65058;HTU21D;51644;51.068;5.860;2023-11-19T04:45:11;12.72;96.52
65058;HTU21D;51644;51.068;5.860;2023-11-19T04:46:17;12.70;96.47
65058;HTU21D;51644;51.068;5.860;2023-11-19T04:47:19;12.71;96.43
65058;HTU21D;51644;51.068;5.860;2023-11-19T04:48:18;12.67;96.35
65058;HTU21D;51644;51.068;5.860;2023-11-19T04:49:17;12.66;96.52
65058;HTU21D;51644;51.068;5.860;2023-11-19T04:50:37;12.62;96.60
65058;HTU21D;51644;51.068;5.860;2023-11-19T04:51:48;12.62;96.64
65058;HTU21D;51644;51.068;5.860;2023-11-19T04:52:55;12.62;96.61
65058;HTU21D;51644;51.068;5.860;2023-11-19T04:54:10;12.64;96.61
65058;HTU21D;51644;51.068;5.860;2023-11-19T04:55:13;12.65;96.65
65058;HTU21D;51644;51.068;5.860;2023-11-19T04:56:13;12.62;96.83
65058;HTU21D;51644;51.068;5.860;2023-11-19T04:57:23;12.65;96.71
65058;HTU21D;51644;51.068;5.860;2023-11-19T04:59:07;12.67;96.51
65058;HTU21D;51644;51.068;5.860;2023-11-19T05:00:12;12.71;96.36
65058;HTU21D;51644;51.068;5.860;2023-11-19T05:01:14;12.69;96.43
65058;HTU21D;51644;51.068;5.860;2023-11-19T05:02:27;12.64;96.61
65058;HTU21D;51644;51.068;5.860;2023-11-19T05:03:39;12.67;96.45
65058;HTU21D;51644;51.068;5.860;2023-11-19T05:04:48;12.70;96.39
65058;HTU21D;51644;51.068;5.860;2023-11-19T05:05:51;12.71;96.24
65058;HTU21D;51644;51.068;5.860;2023-11-19T05:06:55;12.70;96.22
65058;HTU21D;51644;51.068;5.860;2023-11-19T05:07:54;12.73;96.02
65058;HTU21D;51644;51.068;5.860;2023-11-19T05:09:06;12.74;95.85
65058;HTU21D;51644;51.068;5.860;2023-11-19T05:10:13;12.75;95.63
65058;HTU21D;51644;51.068;5.860;2023-11-19T05:11:15;12.76;95.62
65058;HTU21D;51644;51.068;5.860;2023-11-19T05:12:24;12.75;95.56
65058;HTU21D;51644;51.068;5.860;2023-11-19T05:13:25;12.75;95.52
65058;HTU21D;51644;51.068;5.860;2023-11-19T05:14:43;12.70;95.55
65058;HTU21D;51644;51.068;5.860;2023-11-19T05:16:15;12.62;95.95
65058;HTU21D;51644;51.068;5.860;2023-11-19T05:17:17;12.64;95.75
65058;HTU21D;51644;51.068;5.860;2023-11-19T05:19:00;12.62;95.80
65058;HTU21D;51644;51.068;5.860;2023-11-19T05:20:03;12.63;95.72
65058;HTU21D;51644;51.068;5.860;2023-11-19T05:21:07;12.53;96.03
65058;HTU21D;51644;51.068;5.860;2023-11-19T05:22:14;12.57;96.14
65058;HTU21D;51644;51.068;5.860;2023-11-19T05:23:24;12.57;96.00
65058;HTU21D;51644;51.068;5.860;2023-11-19T05:24:25;12.51;95.81
65058;HTU21D;51644;51.068;5.860;2023-11-19T05:25:27;12.56;96.01
65058;HTU21D;51644;51.068;5.860;2023-11-19T05:26:27;12.56;95.64
65058;HTU21D;51644;51.068;5.860;2023-11-19T05:27:29;12.51;95.84
65058;HTU21D;51644;51.068;5.860;2023-11-19T05:28:41;12.44;96.08
65058;HTU21D;51644;51.068;5.860;2023-11-19T05:29:48;12.47;95.91
65058;HTU21D;51644;51.068;5.860;2023-11-19T05:30:49;12.46;95.74
65058;HTU21D;51644;51.068;5.860;2023-11-19T05:31:56;12.47;95.62
65058;HTU21D;51644;51.068;5.860;2023-11-19T05:32:55;12.42;95.54
65058;HTU21D;51644;51.068;5.860;2023-11-19T05:33:57;12.41;95.60
65058;HTU21D;51644;51.068;5.860;2023-11-19T05:35:06;12.36;95.69
65058;HTU21D;51644;51.068;5.860;2023-11-19T05:36:20;12.35;95.76
65058;HTU21D;51644;51.068;5.860;2023-11-19T05:37:30;12.37;95.74
65058;HTU21D;51644;51.068;5.860;2023-11-19T05:38:37;12.38;95.55
65058;HTU21D;51644;51.068;5.860;2023-11-19T05:39:42;12.34;95.48
65058;HTU21D;51644;51.068;5.860;2023-11-19T05:40:47;12.34;95.52
65058;HTU21D;51644;51.068;5.860;2023-11-19T05:42:06;12.35;95.33
65058;HTU21D;51644;51.068;5.860;2023-11-19T05:43:20;12.32;95.39
65058;HTU21D;51644;51.068;5.860;2023-11-19T05:44:25;12.32;95.11
65058;HTU21D;51644;51.068;5.860;2023-11-19T05:45:24;12.31;95.31
65058;HTU21D;51644;51.068;5.860;2023-11-19T05:46:29;12.35;95.16
65058;HTU21D;51644;51.068;5.860;2023-11-19T05:47:33;12.33;95.05
65058;HTU21D;51644;51.068;5.860;2023-11-19T05:48:58;12.31;94.98
65058;HTU21D;51644;51.068;5.860;2023-11-19T05:50:13;12.31;94.95
65058;HTU21D;51644;51.068;5.860;2023-11-19T05:51:57;12.23;95.19
65058;HTU21D;51644;51.068;5.860;2023-11-19T05:52:59;12.26;94.96
65058;HTU21D;51644;51.068;5.860;2023-11-19T05:54:27;12.19;95.25
65058;HTU21D;51644;51.068;5.860;2023-11-19T05:55:52;12.12;94.83
65058;HTU21D;51644;51.068;5.860;2023-11-19T05:56:57;12.10;95.52
65058;HTU21D;51644;51.068;5.860;2023-11-19T05:58:13;12.13;95.49
65058;HTU21D;51644;51.068;5.860;2023-11-19T05:59:30;12.17;95.29
65058;HTU21D;51644;51.068;5.860;2023-11-19T06:00:53;12.19;94.98
65058;HTU21D;51644;51.068;5.860;2023-11-19T06:02:12;12.15;94.94
65058;HTU21D;51644;51.068;5.860;2023-11-19T06:03:32;12.15;94.82
65058;HTU21D;51644;51.068;5.860;2023-11-19T06:04:54;12.13;94.58
65058;HTU21D;51644;51.068;5.860;2023-11-19T06:05:59;12.12;94.62
65058;HTU21D;51644;51.068;5.860;2023-11-19T06:07:21;12.13;94.55
65058;HTU21D;51644;51.068;5.860;2023-11-19T06:08:36;12.12;94.52
65058;HTU21D;51644;51.068;5.860;2023-11-19T06:10:50;12.05;94.51
65058;HTU21D;51644;51.068;5.860;2023-11-19T06:11:51;12.02;94.75
65058;HTU21D;51644;51.068;5.860;2023-11-19T06:13:03;12.05;94.50
65058;HTU21D;51644;51.068;5.860;2023-11-19T06:14:08;12.04;94.26
65058;HTU21D;51644;51.068;5.860;2023-11-19T06:15:14;12.04;94.21
65058;HTU21D;51644;51.068;5.860;2023-11-19T06:16:13;12.01;94.20
65058;HTU21D;51644;51.068;5.860;2023-11-19T06:17:14;12.01;94.11
65058;HTU21D;51644;51.068;5.860;2023-11-19T06:18:23;11.98;94.34
65058;HTU21D;51644;51.068;5.860;2023-11-19T06:19:31;11.92;94.32
65058;HTU21D;51644;51.068;5.860;2023-11-19T06:20:53;11.96;94.17
65058;HTU21D;51644;51.068;5.860;2023-11-19T06:21:55;11.94;94.07
65058;HTU21D;51644;51.068;5.860;2023-11-19T06:23:01;11.91;94.39
65058;HTU21D;51644;51.068;5.860;2023-11-19T06:24:00;11.91;94.41
65058;HTU21D;51644;51.068;5.860;2023-11-19T06:24:59;11.90;94.29
65058;HTU21D;51644;51.068;5.860;2023-11-19T06:26:11;11.87;94.20
65058;HTU21D;51644;51.068;5.860;2023-11-19T06:27:12;11.87;94.29
65058;HTU21D;51644;51.068;5.860;2023-11-19T06:28:32;11.88;94.13
65058;HTU21D;51644;51.068;5.860;2023-11-19T06:29:50;11.85;94.09
65058;HTU21D;51644;51.068;5.860;2023-11-19T06:30:59;11.88;94.01
65058;HTU21D;51644;51.068;5.860;2023-11-19T06:31:57;11.87;94.02
65058;HTU21D;51644;51.068;5.860;2023-11-19T06:33:16;11.88;93.91
65058;HTU21D;51644;51.068;5.860;2023-11-19T06:34:18;11.84;93.98
65058;HTU21D;51644;51.068;5.860;2023-11-19T06:35:58;11.81;94.41
65058;HTU21D;51644;51.068;5.860;2023-11-19T06:37:06;11.84;93.82
65058;HTU21D;51644;51.068;5.860;2023-11-19T06:38:29;11.84;93.69
65058;HTU21D;51644;51.068;5.860;2023-11-19T06:39:37;11.81;93.71
65058;HTU21D;51644;51.068;5.860;2023-11-19T06:40:55;11.78;93.86
65058;HTU21D;51644;51.068;5.860;2023-11-19T06:41:54;11.79;93.77
65058;HTU21D;51644;51.068;5.860;2023-11-19T06:43:20;11.77;93.66
65058;HTU21D;51644;51.068;5.860;2023-11-19T06:44:51;11.78;93.63
65058;HTU21D;51644;51.068;5.860;2023-11-19T06:45:54;11.75;93.58
65058;HTU21D;51644;51.068;5.860;2023-11-19T06:47:07;11.69;93.91
65058;HTU21D;51644;51.068;5.860;2023-11-19T06:48:19;11.73;93.72
65058;HTU21D;51644;51.068;5.860;2023-11-19T06:49:23;11.73;93.58
65058;HTU21D;51644;51.068;5.860;2023-11-19T06:51:08;11.74;93.67
65058;HTU21D;51644;51.068;5.860;2023-11-19T06:52:24;11.73;93.49
65058;HTU21D;51644;51.068;5.860;2023-11-19T06:53:24;11.74;93.56
65058;HTU21D;51644;51.068;5.860;2023-11-19T06:54:23;11.70;93.72
65058;HTU21D;51644;51.068;5.860;2023-11-19T06:55:22;11.74;93.53
65058;HTU21D;51644;51.068;5.860;2023-11-19T06:56:24;11.74;93.39
65058;HTU21D;51644;51.068;5.860;2023-11-19T06:57:29;11.72;93.44
65058;HTU21D;51644;51.068;5.860;2023-11-19T06:58:30;11.73;93.37
65058;HTU21D;51644;51.068;5.860;2023-11-19T06:59:40;11.76;93.21